createdAt,value
2023-05-19T00:02:23.447Z,2.13
2023-05-19T00:04:51.067Z,2.15
2023-05-19T00:07:22.089Z,1.88
2023-05-19T00:09:49.757Z,1.95
2023-05-19T00:12:18.464Z,2.25
2023-05-19T00:14:45.897Z,2.72
2023-05-19T00:17:13.494Z,2.00
2023-05-19T00:19:40.764Z,2.20
2023-05-19T00:22:07.900Z,1.92
2023-05-19T00:24:35.384Z,1.83
2023-05-19T00:27:02.595Z,1.77
2023-05-19T00:29:30.481Z,2.17
2023-05-19T00:31:58.222Z,1.88
2023-05-19T00:34:25.573Z,1.88
2023-05-19T00:36:52.824Z,2.42
2023-05-19T00:39:20.106Z,2.03
2023-05-19T00:41:47.833Z,1.92
2023-05-19T00:44:15.121Z,2.10
2023-05-19T00:46:42.720Z,2.15
2023-05-19T00:49:09.971Z,2.20
2023-05-19T00:51:37.719Z,2.33
2023-05-19T00:54:05.428Z,1.90
2023-05-19T00:56:33.384Z,1.98
2023-05-19T00:59:01.363Z,2.40
2023-05-19T01:01:29.101Z,2.17
2023-05-19T01:03:59.413Z,2.53
2023-05-19T01:06:28.062Z,2.05
2023-05-19T01:08:57.573Z,2.17
2023-05-19T01:11:24.797Z,2.30
2023-05-19T01:13:52.048Z,1.90
2023-05-19T01:16:33.894Z,1.92
2023-05-19T01:19:37.205Z,2.00
2023-05-19T01:22:43.105Z,2.10
2023-05-19T01:25:35.826Z,1.77
2023-05-19T01:28:20.898Z,1.92
2023-05-19T01:30:59.972Z,2.38
2023-05-19T01:33:30.396Z,2.20
2023-05-19T01:38:29.606Z,2.03
2023-05-19T01:40:58.339Z,2.58
2023-05-19T01:43:26.897Z,1.90
2023-05-19T01:45:55.850Z,1.73
2023-05-19T01:48:23.889Z,1.83
2023-05-19T01:50:51.600Z,2.35
2023-05-19T01:53:19.249Z,2.10
2023-05-19T01:55:50.083Z,2.30
2023-05-19T01:58:45.636Z,1.95
2023-05-19T02:01:54.594Z,2.03
2023-05-19T02:04:43.849Z,2.42
2023-05-19T02:07:19.648Z,2.85
2023-05-19T02:10:04.337Z,2.70
2023-05-19T02:12:36.172Z,2.10
2023-05-19T02:15:21.781Z,2.28
2023-05-19T02:17:52.267Z,2.45
2023-05-19T02:20:20.181Z,2.00
2023-05-19T02:22:47.803Z,1.75
2023-05-19T02:25:15.120Z,2.28
2023-05-19T02:27:42.637Z,1.92
2023-05-19T02:30:10.505Z,1.75
2023-05-19T02:32:37.934Z,1.90
2023-05-19T02:35:05.787Z,1.70
2023-05-19T02:37:32.954Z,1.65
2023-05-19T02:40:00.087Z,1.52
2023-05-19T02:42:27.699Z,2.03
2023-05-19T02:45:03.125Z,1.58
2023-05-19T02:47:30.734Z,2.22
2023-05-19T02:49:58.129Z,2.13
2023-05-19T02:52:25.313Z,1.90
2023-05-19T02:54:52.586Z,1.50
2023-05-19T02:57:29.541Z,1.52
2023-05-19T02:59:57.080Z,2.15
2023-05-19T03:02:25.024Z,2.05
2023-05-19T03:04:53.448Z,1.50
2023-05-19T03:07:25.624Z,1.98
2023-05-19T03:09:53.252Z,2.20
2023-05-19T03:12:20.987Z,1.90
2023-05-19T03:14:51.276Z,2.15
2023-05-19T03:17:18.826Z,2.03
2023-05-19T03:19:46.824Z,2.28
2023-05-19T03:22:14.006Z,2.20
2023-05-19T03:24:41.972Z,1.75
2023-05-19T03:27:16.305Z,2.05
2023-05-19T03:29:43.439Z,2.10
2023-05-19T03:32:11.084Z,2.17
2023-05-19T03:34:44.202Z,2.10
2023-05-19T03:37:11.647Z,2.30
2023-05-19T03:39:39.392Z,2.28
2023-05-19T03:42:06.762Z,2.28
2023-05-19T03:44:33.804Z,2.35
2023-05-19T03:47:01.585Z,2.17
2023-05-19T03:51:59.879Z,2.20
2023-05-19T03:54:35.142Z,2.00
2023-05-19T03:57:02.582Z,2.30
2023-05-19T03:59:30.496Z,2.20
2023-05-19T04:01:58.528Z,2.50
2023-05-19T04:04:26.818Z,1.63
2023-05-19T04:06:54.029Z,2.00
2023-05-19T04:09:21.796Z,2.25
2023-05-19T04:11:48.978Z,1.48
2023-05-19T04:14:16.511Z,2.30
2023-05-19T04:16:44.143Z,1.67
2023-05-19T04:19:11.682Z,2.22
2023-05-19T04:21:39.079Z,2.03
2023-05-19T04:24:09.495Z,1.83
2023-05-19T04:26:38.459Z,1.58
2023-05-19T04:29:05.964Z,1.75
2023-05-19T04:31:34.661Z,1.45
2023-05-19T04:34:02.114Z,1.83
2023-05-19T04:36:29.866Z,2.10
2023-05-19T04:39:02.654Z,1.77
2023-05-19T04:41:29.842Z,3.08
2023-05-19T04:43:57.828Z,1.65
2023-05-19T04:46:26.955Z,1.27
2023-05-19T04:48:57.395Z,1.70
2023-05-19T04:51:30.297Z,1.55
2023-05-19T04:53:58.645Z,1.77
2023-05-19T04:56:27.565Z,2.00
2023-05-19T04:58:54.760Z,1.50
2023-05-19T05:01:26.483Z,1.45
2023-05-19T05:03:58.041Z,1.73
2023-05-19T05:06:25.507Z,1.77
2023-05-19T05:08:53.311Z,1.65
2023-05-19T05:11:20.827Z,1.88
2023-05-19T05:13:48.431Z,1.70
2023-05-19T05:16:16.113Z,1.63
2023-05-19T05:18:44.933Z,1.58
2023-05-19T05:21:12.860Z,1.50
2023-05-19T05:23:40.596Z,1.70
2023-05-19T05:26:13.513Z,1.58
2023-05-19T05:28:41.966Z,2.40
2023-05-19T05:31:09.114Z,1.67
2023-05-19T05:33:36.505Z,1.58
2023-05-19T05:36:04.802Z,1.77
2023-05-19T05:38:32.494Z,2.28
2023-05-19T05:40:59.753Z,2.20
2023-05-19T05:43:26.870Z,2.22
2023-05-19T05:45:54.486Z,1.60
2023-05-19T05:48:24.900Z,1.95
2023-05-19T05:50:53.450Z,1.75
2023-05-19T05:53:22.329Z,2.08
2023-05-19T05:55:50.104Z,2.20
2023-05-19T05:58:17.620Z,1.83
2023-05-19T06:00:45.552Z,2.20
2023-05-19T06:03:13.792Z,2.03
2023-05-19T06:05:41.243Z,2.10
2023-05-19T06:08:08.777Z,2.00
2023-05-19T06:10:36.996Z,2.08
2023-05-19T06:13:04.241Z,2.25
2023-05-19T06:15:31.573Z,2.53
2023-05-19T06:17:59.471Z,2.20
2023-05-19T06:20:26.850Z,2.28
2023-05-19T06:22:54.238Z,2.10
2023-05-19T06:25:24.582Z,2.67
2023-05-19T06:27:51.772Z,2.17
2023-05-19T06:30:19.331Z,1.95
2023-05-19T06:32:47.122Z,2.30
2023-05-19T06:35:14.632Z,2.10
2023-05-19T06:37:41.771Z,2.00
2023-05-19T06:40:10.534Z,2.00
2023-05-19T06:42:37.707Z,1.88
2023-05-19T06:45:05.347Z,1.77
2023-05-19T06:47:32.745Z,2.25
2023-05-19T06:49:59.812Z,2.25
2023-05-19T06:52:26.917Z,2.28
2023-05-19T06:54:54.171Z,2.10
2023-05-19T06:57:21.913Z,1.60
2023-05-19T06:59:49.365Z,2.30
2023-05-19T07:02:16.993Z,2.30
2023-05-19T07:04:44.676Z,2.53
2023-05-19T07:07:12.349Z,2.17
2023-05-19T07:09:40.418Z,2.10
2023-05-19T07:12:08.324Z,2.08
2023-05-19T07:14:36.744Z,2.22
2023-05-19T07:17:04.250Z,2.05
2023-05-19T07:19:31.741Z,2.17
2023-05-19T07:21:59.734Z,1.92
2023-05-19T07:24:27.748Z,2.17
2023-05-19T07:26:55.453Z,2.00
2023-05-19T07:29:24.963Z,2.22
2023-05-19T07:31:54.556Z,2.55
2023-05-19T07:34:22.219Z,2.28
2023-05-19T07:36:49.692Z,2.40
2023-05-19T07:39:17.599Z,2.15
2023-05-19T07:41:52.992Z,2.40
2023-05-19T07:44:20.728Z,2.13
2023-05-19T07:46:48.408Z,2.42
2023-05-19T07:49:16.369Z,2.30
2023-05-19T07:51:44.038Z,2.30
2023-05-19T07:54:11.676Z,1.85
2023-05-19T07:56:46.303Z,2.65
2023-05-19T07:59:17.386Z,2.20
2023-05-19T08:01:45.207Z,2.35
2023-05-19T08:04:13.350Z,2.47
2023-05-19T08:06:45.653Z,2.25
2023-05-19T08:09:12.974Z,2.30
2023-05-19T08:11:45.527Z,3.00
2023-05-19T08:14:12.855Z,2.35
2023-05-19T08:16:42.464Z,2.40
2023-05-19T08:19:10.188Z,2.63
2023-05-19T08:21:40.564Z,2.00
2023-05-19T08:24:10.712Z,2.25
2023-05-19T08:26:38.253Z,1.92
2023-05-19T08:29:05.804Z,2.58
2023-05-19T08:31:33.597Z,2.88
2023-05-19T08:34:01.364Z,2.85
2023-05-19T08:36:29.728Z,2.65
2023-05-19T08:38:58.290Z,2.40
2023-05-19T08:41:26.682Z,2.47
2023-05-19T08:43:54.427Z,2.92
2023-05-19T08:46:25.174Z,2.42
2023-05-19T08:49:02.247Z,2.38
2023-05-19T08:51:44.642Z,2.63
2023-05-19T08:54:16.224Z,2.22
2023-05-19T08:56:48.197Z,3.08
2023-05-19T08:59:17.412Z,2.30
2023-05-19T09:01:50.621Z,2.83
2023-05-19T09:04:18.499Z,2.10
2023-05-19T09:06:45.962Z,2.92
2023-05-19T09:09:13.262Z,2.45
2023-05-19T09:11:41.290Z,2.72
2023-05-19T09:14:09.202Z,2.92
2023-05-19T09:16:37.162Z,2.65
2023-05-19T09:19:05.422Z,2.72
2023-05-19T09:21:33.841Z,3.10
2023-05-19T09:24:08.637Z,2.30
2023-05-19T09:26:40.867Z,2.50
2023-05-19T09:29:18.302Z,2.10
2023-05-19T09:31:50.873Z,2.63
2023-05-19T09:34:19.509Z,2.75
2023-05-19T09:36:52.917Z,2.90
2023-05-19T09:39:22.316Z,2.97
2023-05-19T09:41:54.269Z,3.00
2023-05-19T09:44:24.502Z,3.00
2023-05-19T09:46:52.975Z,3.17
2023-05-19T09:49:24.134Z,2.80
2023-05-19T09:51:55.504Z,3.42
2023-05-19T09:54:24.352Z,2.83
2023-05-19T09:57:01.371Z,3.10
2023-05-19T09:59:32.971Z,3.60
2023-05-19T10:02:03.018Z,3.08
2023-05-19T10:04:31.623Z,2.53
2023-05-19T10:07:07.967Z,2.45
2023-05-19T10:09:39.745Z,1.80
2023-05-19T10:12:07.840Z,3.30
2023-05-19T10:14:36.162Z,3.15
2023-05-19T10:17:04.487Z,2.55
2023-05-19T10:19:34.893Z,2.47
2023-05-19T10:22:02.553Z,2.90
2023-05-19T10:24:30.139Z,3.53
2023-05-19T10:27:07.947Z,3.05
2023-05-19T10:29:39.861Z,3.00
2023-05-19T10:32:12.012Z,2.83
2023-05-19T10:35:04.274Z,2.67
2023-05-19T10:37:50.149Z,3.35
2023-05-19T10:40:34.866Z,3.17
2023-05-19T10:43:14.470Z,3.03
2023-05-19T10:45:51.938Z,3.78
2023-05-19T10:48:24.673Z,3.85
2023-05-19T10:51:02.033Z,3.28
2023-05-19T10:53:33.469Z,3.17
2023-05-19T10:56:04.601Z,3.17
2023-05-19T10:58:43.942Z,3.17
2023-05-19T11:01:25.455Z,3.60
2023-05-19T11:04:14.178Z,3.00
2023-05-19T11:06:42.035Z,3.60
2023-05-19T11:09:19.589Z,3.83
2023-05-19T11:11:52.201Z,3.67
2023-05-19T11:14:23.285Z,3.08
2023-05-19T11:16:52.830Z,3.00
2023-05-19T11:19:35.519Z,3.70
2023-05-19T11:22:10.124Z,3.33
2023-05-19T11:24:44.823Z,2.75
2023-05-19T11:27:29.636Z,15.98
2023-05-19T11:30:07.674Z,5.60
2023-05-19T11:32:39.341Z,4.05
2023-05-19T11:35:08.164Z,3.95
2023-05-19T11:37:36.250Z,3.05
2023-05-19T11:40:09.092Z,3.40
2023-05-19T11:42:37.404Z,3.28
2023-05-19T11:45:06.262Z,3.17
2023-05-19T11:47:47.414Z,3.28
2023-05-19T11:50:20.745Z,2.83
2023-05-19T11:52:56.923Z,3.13
2023-05-19T11:55:25.440Z,3.20
2023-05-19T11:58:03.896Z,3.05
2023-05-19T12:00:39.840Z,3.42
2023-05-19T12:03:12.665Z,3.40
2023-05-19T12:05:46.832Z,2.92
2023-05-19T12:08:29.253Z,3.03
2023-05-19T12:10:57.623Z,3.50
2023-05-19T12:13:29.273Z,3.38
2023-05-19T12:16:01.301Z,3.75
2023-05-19T12:18:32.755Z,3.63
2023-05-19T12:21:00.328Z,2.95
2023-05-19T12:23:31.438Z,3.42
2023-05-19T12:26:02.373Z,3.08
2023-05-19T12:28:32.658Z,3.13
2023-05-19T12:31:02.427Z,3.42
2023-05-19T12:33:33.481Z,3.05
2023-05-19T12:36:02.933Z,3.10
2023-05-19T12:38:33.241Z,3.22
2023-05-19T12:41:04.513Z,3.17
2023-05-19T12:43:33.670Z,3.47
2023-05-19T12:46:13.515Z,3.53
2023-05-19T12:48:43.890Z,3.63
2023-05-19T12:51:12.173Z,3.63
2023-05-19T12:53:39.777Z,3.95
2023-05-19T12:56:17.717Z,3.55
2023-05-19T12:58:46.207Z,3.80
2023-05-19T13:01:26.185Z,3.85
2023-05-19T13:03:59.252Z,3.83
2023-05-19T13:06:37.012Z,3.55
2023-05-19T13:09:04.689Z,3.40
2023-05-19T13:11:32.443Z,3.80
2023-05-19T13:14:10.138Z,3.35
2023-05-19T13:16:38.155Z,3.08
2023-05-19T13:19:17.560Z,3.05
2023-05-19T13:21:51.453Z,3.50
2023-05-19T13:24:19.793Z,3.35
2023-05-19T13:26:49.732Z,3.00
2023-05-19T13:29:17.300Z,3.60
2023-05-19T13:31:44.707Z,3.38
2023-05-19T13:34:15.074Z,4.15
2023-05-19T13:36:43.027Z,4.05
2023-05-19T13:39:10.198Z,3.53
2023-05-19T13:41:38.606Z,4.07
2023-05-19T13:44:06.380Z,3.55
2023-05-19T13:46:47.438Z,4.10
2023-05-19T13:49:22.131Z,3.35
2023-05-19T13:51:50.617Z,3.60
2023-05-19T13:54:27.913Z,3.47
2023-05-19T13:56:58.543Z,3.47
2023-05-19T13:59:27.078Z,3.53
2023-05-19T14:01:57.490Z,3.28
2023-05-19T14:06:52.706Z,3.67
2023-05-19T14:09:23.189Z,3.80
2023-05-19T14:11:53.059Z,3.67
2023-05-19T14:14:25.921Z,3.58
2023-05-19T14:16:53.758Z,4.03
2023-05-19T14:19:30.535Z,3.95
2023-05-19T14:21:58.395Z,3.55
2023-05-19T14:24:26.620Z,3.50
2023-05-19T14:26:54.050Z,3.78
2023-05-19T14:29:24.042Z,3.33
2023-05-19T14:31:53.573Z,3.20
2023-05-19T14:34:21.392Z,3.33
2023-05-19T14:36:49.016Z,3.30
2023-05-19T14:39:16.330Z,3.33
2023-05-19T14:41:43.686Z,3.45
2023-05-19T14:44:11.148Z,4.07
2023-05-19T14:46:38.649Z,3.88
2023-05-19T14:49:06.811Z,3.92
2023-05-19T14:51:34.829Z,3.08
2023-05-19T14:54:04.883Z,3.78
2023-05-19T14:56:32.434Z,3.38
2023-05-19T14:59:00.807Z,3.95
2023-05-19T15:01:28.273Z,3.47
2023-05-19T15:03:56.538Z,3.40
2023-05-19T15:06:26.621Z,3.40
2023-05-19T15:08:53.984Z,3.72
2023-05-19T15:11:23.017Z,3.60
2023-05-19T15:13:51.264Z,3.25
2023-05-19T15:16:19.032Z,3.38
2023-05-19T15:18:47.046Z,3.17
2023-05-19T15:21:14.357Z,3.50
2023-05-19T15:23:42.055Z,3.33
2023-05-19T15:26:10.111Z,3.08
2023-05-19T15:28:38.280Z,3.83
2023-05-19T15:31:05.926Z,4.32
2023-05-19T15:33:33.266Z,2.90
2023-05-19T15:36:07.845Z,3.85
2023-05-19T15:38:36.471Z,3.03
2023-05-19T15:41:08.162Z,3.50
2023-05-19T15:43:35.714Z,3.40
2023-05-19T15:46:10.153Z,3.80
2023-05-19T15:48:38.421Z,3.05
2023-05-19T15:51:08.093Z,3.42
2023-05-19T15:53:35.781Z,3.22
2023-05-19T15:56:06.387Z,3.75
2023-05-19T15:58:35.235Z,4.00
2023-05-19T16:01:03.139Z,2.90
2023-05-19T16:03:30.874Z,3.70
2023-05-19T16:05:59.423Z,3.13
2023-05-19T16:08:27.015Z,3.53
2023-05-19T16:10:55.352Z,3.17
2023-05-19T16:13:23.010Z,3.95
2023-05-19T16:15:56.319Z,3.55
2023-05-19T16:18:23.904Z,3.22
2023-05-19T16:20:51.710Z,4.07
2023-05-19T16:23:18.963Z,2.97
2023-05-19T16:25:47.138Z,2.97
2023-05-19T16:28:14.868Z,3.78
2023-05-19T16:30:43.088Z,3.65
2023-05-19T16:33:11.994Z,3.70
2023-05-19T16:35:39.548Z,3.35
2023-05-19T16:38:06.888Z,3.17
2023-05-19T16:40:34.443Z,3.67
2023-05-19T16:43:02.460Z,4.03
2023-05-19T16:45:29.977Z,3.00
2023-05-19T16:47:58.238Z,3.10
2023-05-19T16:50:28.308Z,3.03
2023-05-19T16:53:16.737Z,3.22
2023-05-19T16:55:45.993Z,2.70
2023-05-19T16:58:20.552Z,2.65
2023-05-19T17:00:52.534Z,3.42
2023-05-19T17:03:20.636Z,3.00
2023-05-19T17:05:54.743Z,3.05
2023-05-19T17:08:33.149Z,3.33
2023-05-19T17:11:00.545Z,3.00
2023-05-19T17:13:29.430Z,3.00
2023-05-19T17:15:58.161Z,3.38
2023-05-19T17:18:33.330Z,3.22
2023-05-19T17:21:04.383Z,3.30
2023-05-19T17:23:32.555Z,3.20
2023-05-19T17:26:00.108Z,3.20
2023-05-19T17:28:27.788Z,3.05
2023-05-19T17:30:57.519Z,3.42
2023-05-19T17:33:27.358Z,3.50
2023-05-19T17:35:55.232Z,2.88
2023-05-19T17:38:26.046Z,3.55
2023-05-19T17:40:53.992Z,3.20
2023-05-19T17:43:24.639Z,3.45
2023-05-19T17:45:52.106Z,3.30
2023-05-19T17:48:25.528Z,4.05
2023-05-19T17:50:52.714Z,3.40
2023-05-19T17:53:20.370Z,3.67
2023-05-19T17:55:51.827Z,4.20
2023-05-19T17:58:19.605Z,3.58
2023-05-19T18:00:47.373Z,3.25
2023-05-19T18:03:15.126Z,4.35
2023-05-19T18:05:46.802Z,3.40
2023-05-19T18:08:23.166Z,3.70
2023-05-19T18:10:53.062Z,3.90
2023-05-19T18:15:52.808Z,3.83
2023-05-19T18:18:20.140Z,4.28
2023-05-19T18:20:50.401Z,4.28
2023-05-19T18:23:18.906Z,3.97
2023-05-19T18:25:51.952Z,4.15
2023-05-19T18:28:19.502Z,3.72
2023-05-19T18:30:46.951Z,4.45
2023-05-19T18:33:14.532Z,4.32
2023-05-19T18:35:42.630Z,4.05
2023-05-19T18:38:10.281Z,4.35
2023-05-19T18:40:39.226Z,3.60
2023-05-19T18:43:11.425Z,3.95
2023-05-19T18:45:38.725Z,4.25
2023-05-19T18:48:07.535Z,4.18
2023-05-19T18:50:35.729Z,4.80
2023-05-19T18:53:06.283Z,4.40
2023-05-19T18:55:33.884Z,4.22
2023-05-19T18:58:02.027Z,3.83
2023-05-19T19:00:29.384Z,5.05
2023-05-19T19:02:56.848Z,4.10
2023-05-19T19:05:24.405Z,3.78
2023-05-19T19:07:52.617Z,4.32
2023-05-19T19:10:20.292Z,4.47
2023-05-19T19:12:48.308Z,4.63
2023-05-19T19:15:16.257Z,4.30
2023-05-19T19:17:52.108Z,4.78
2023-05-19T19:20:21.843Z,4.63
2023-05-19T19:22:49.656Z,4.68
2023-05-19T19:25:17.290Z,4.25
2023-05-19T19:27:45.083Z,4.60
2023-05-19T19:30:13.081Z,5.20
2023-05-19T19:32:40.202Z,4.88
2023-05-19T19:35:08.040Z,4.20
2023-05-19T19:37:35.798Z,4.40
2023-05-19T19:40:03.066Z,4.53
2023-05-19T19:42:32.106Z,4.75
2023-05-19T19:44:59.502Z,4.93
2023-05-19T19:47:27.917Z,4.32
2023-05-19T19:49:59.356Z,4.95
2023-05-19T19:52:26.804Z,4.25
2023-05-19T19:54:54.177Z,5.10
2023-05-19T19:57:26.619Z,4.10
2023-05-19T19:59:55.256Z,3.63
2023-05-19T20:02:22.982Z,4.35
2023-05-19T20:04:50.857Z,4.15
2023-05-19T20:07:19.859Z,4.25
2023-05-19T20:09:49.841Z,5.35
2023-05-19T20:12:17.321Z,4.53
2023-05-19T20:14:45.172Z,4.57
2023-05-19T20:17:12.540Z,4.55
2023-05-19T20:19:40.114Z,3.92
2023-05-19T20:22:08.067Z,4.63
2023-05-19T20:24:35.258Z,4.65
2023-05-19T20:27:02.940Z,5.05
2023-05-19T20:29:30.519Z,4.32
2023-05-19T20:31:57.954Z,4.53
2023-05-19T20:34:26.198Z,5.20
2023-05-19T20:36:54.005Z,5.30
2023-05-19T20:39:24.377Z,4.68
2023-05-19T20:44:19.086Z,4.28
2023-05-19T20:46:46.375Z,5.03
2023-05-19T20:49:16.486Z,5.18
2023-05-19T20:51:43.778Z,4.80
2023-05-19T20:54:10.991Z,4.82
2023-05-19T20:56:38.808Z,5.50
2023-05-19T20:59:06.121Z,5.28
2023-05-19T21:01:33.421Z,6.15
2023-05-19T21:04:01.237Z,5.50
2023-05-19T21:06:31.294Z,4.97
2023-05-19T21:09:03.622Z,5.15
2023-05-19T21:11:32.016Z,5.65
2023-05-19T21:14:04.477Z,4.80
2023-05-19T21:16:32.307Z,4.95
2023-05-19T21:19:02.144Z,4.68
2023-05-19T21:21:32.781Z,5.13
2023-05-19T21:26:27.587Z,4.57
2023-05-19T21:28:54.682Z,4.72
2023-05-19T21:31:22.496Z,6.05
2023-05-19T21:33:49.901Z,5.30
2023-05-19T21:36:17.260Z,4.82
2023-05-19T21:38:48.831Z,4.93
2023-05-19T21:41:16.106Z,4.95
2023-05-19T21:43:45.286Z,5.75
2023-05-19T21:46:12.744Z,5.68
2023-05-19T21:48:50.885Z,5.43
2023-05-19T21:51:18.266Z,4.97
2023-05-19T21:53:45.676Z,5.18
2023-05-19T21:56:12.769Z,5.40
2023-05-19T21:58:40.736Z,5.63
2023-05-19T22:01:08.760Z,6.13
2023-05-19T22:03:36.155Z,4.93
2023-05-19T22:06:05.124Z,6.10
2023-05-19T22:08:32.225Z,6.03
2023-05-19T22:10:59.613Z,5.57
2023-05-19T22:13:26.858Z,5.38
2023-05-19T22:15:54.064Z,4.38
2023-05-19T22:18:21.683Z,5.63
2023-05-19T22:20:52.632Z,5.38
2023-05-19T22:23:19.688Z,5.50
2023-05-19T22:25:52.281Z,5.85
2023-05-19T22:28:19.846Z,5.32
2023-05-19T22:30:47.474Z,5.72
2023-05-19T22:33:19.162Z,5.80
2023-05-19T22:35:47.332Z,5.53
2023-05-19T22:38:30.936Z,5.38
2023-05-19T22:41:09.275Z,5.88
2023-05-19T22:43:40.003Z,5.95
2023-05-19T22:46:17.020Z,5.68
2023-05-19T22:48:44.105Z,6.03
2023-05-19T22:51:11.768Z,6.05
2023-05-19T22:53:39.505Z,5.90
2023-05-19T22:56:06.942Z,6.05
2023-05-19T22:58:34.144Z,5.53
2023-05-19T23:01:01.550Z,5.18
2023-05-19T23:03:28.871Z,5.63
2023-05-19T23:05:56.288Z,5.55
2023-05-19T23:08:25.866Z,5.50
2023-05-19T23:10:53.286Z,4.93
2023-05-19T23:13:20.461Z,5.05
2023-05-19T23:15:49.141Z,5.28
2023-05-19T23:18:16.494Z,4.95
2023-05-19T23:20:43.655Z,4.90
2023-05-19T23:23:10.962Z,4.68
2023-05-19T23:25:38.555Z,5.88
2023-05-19T23:28:10.311Z,6.20
2023-05-19T23:30:38.479Z,4.65
2023-05-19T23:33:06.198Z,5.05
2023-05-19T23:35:33.593Z,5.55
2023-05-19T23:38:01.204Z,4.97
2023-05-19T23:40:30.829Z,5.75
2023-05-19T23:42:58.112Z,5.00
2023-05-19T23:45:25.607Z,5.28
2023-05-19T23:47:52.761Z,5.47
2023-05-19T23:50:20.489Z,5.80
2023-05-19T23:52:48.985Z,5.47
2023-05-19T23:55:16.534Z,6.03
2023-05-19T23:57:46.456Z,5.78
